Troicko-Pecherskoe, Russia
Current Conditions -  °F | °C
As of 8:00 PM on Tuesday 27 Jan 2015 (Local Time) from UUYY Reporting Station
Snow Showers Snow Showers  
Wind Chill: -4°   Ceiling: 1700
Heat Index: 10°   Visibility: 4mi
Dew Point:   Wind: 11mph
Humidity: 85%   Direction: 200°SSW
Pressure: 29.97"   Gusts: 18mph
Location:  62.7°N, 56.2°E
Report Text: UUYY 271700Z 20005G08MPS 7000 -SHSN SCT009 BKN017CB OVC066 M12/M14 Q1015 TEMPO 2000 SHSN 1945//37 RMK QFE752/1003
Loading
Personal Weather Stations






























Interactive Weather Map New forecast layout! Learn more

10-Day Weather Forecast

Advertisements
Track Severe Weather on mobile